Terminal Aerodrome Forecast
Issued by NWS

Home | Current Version | Previous Version | Graphics & Text | Print | Product List | Glossary On
Versions: 1 2 3 4 5 6 7 8 9 10 11 12 13 14 15 16 17 18 19 20
000
FTUS43 KMPX 252000 AAA
TAFAXN
TAF AMD
KAXN 252059Z 2521/2618 28016G21KT P6SM BKN035
     FM260100 30007KT P6SM SCT030 BKN050
     FM260800 32006KT P6SM SKC
     FM261700 35007KT P6SM SCT030=

USA.gov is the U.S. government's official web portal to all federal, state and local government web resources and services.